Track Слепенков Матвей

Time Latitude Longitude Accuracy (66% radius in meters) Altitude (meters) Speed (km/hour) Bearing (degrees) Battery (%) GPS flag
06:52:26 57.200197 60.118571 0 0 0 0 1 delete
06:52:24 57.200113 60.118546 0 0 0 0 1 delete
06:52:22 57.200027 60.118528 0 0 0 0 1 delete
06:52:20 57.199952 60.118519 0 0 0 0 1 delete
06:52:09 57.199899 60.118523 0 0 0 0 1 delete
06:52:05 57.199880 60.118608 0 0 0 0 1 delete
06:52:02 57.199858 60.118730 0 0 0 0 1 delete
06:51:59 57.199844 60.118830 0 0 0 0 1 delete
06:51:51 57.199846 60.118930 0 0 0 0 1 delete
06:51:28 57.199798 60.118964 0 0 0 0 1 delete
06:51:06 57.199740 60.118978 0 0 0 0 1 delete
06:51:02 57.199646 60.119010 0 0 0 0 1 delete
06:50:59 57.199570 60.118971 0 0 0 0 1 delete
06:50:56 57.199504 60.118909 0 0 0 0 1 delete
06:50:53 57.199446 60.118754 0 0 0 0 1 delete
06:50:50 57.199347 60.118758 0 0 0 0 1 delete
06:50:46 57.199237 60.118749 0 0 0 0 1 delete
06:50:44 57.199215 60.118617 0 0 0 0 1 delete
06:50:41 57.199168 60.118445 0 0 0 0 1 delete
06:50:38 57.199169 60.118321 0 0 0 0 1 delete
06:50:35 57.199200 60.118196 0 0 0 0 1 delete
06:50:29 57.199227 60.118073 0 0 0 0 1 delete
06:50:26 57.199224 60.117952 0 0 0 0 1 delete
06:50:22 57.199217 60.117820 0 0 0 0 1 delete
06:50:16 57.199241 60.117714 0 0 0 0 1 delete
06:50:11 57.199281 60.117603 0 0 0 0 1 delete
06:50:03 57.199313 60.117510 0 0 0 0 1 delete
06:50:00 57.199345 60.117388 0 0 0 0 1 delete
06:49:56 57.199385 60.117257 0 0 0 0 1 delete
06:49:52 57.199459 60.117113 0 0 0 0 1 delete
06:49:49 57.199535 60.116992 0 0 0 0 1 delete
06:49:46 57.199618 60.116915 0 0 0 0 1 delete
06:49:44 57.199662 60.116798 0 0 0 0 1 delete
06:49:41 57.199689 60.116658 0 0 0 0 1 delete
06:49:33 57.199733 60.116536 0 0 0 0 1 delete
06:49:28 57.199802 60.116522 0 0 0 0 1 delete
06:49:25 57.199901 60.116558 0 0 0 0 1 delete
06:49:23 57.199987 60.116570 0 0 0 0 1 delete
06:49:21 57.200062 60.116592 0 0 0 0 1 delete
06:49:14 57.200144 60.116528 0 0 0 0 1 delete
06:49:06 57.200173 60.116405 0 0 0 0 1 delete
06:49:00 57.200180 60.116282 0 0 0 0 1 delete
06:48:54 57.200175 60.116142 0 0 0 0 1 delete
06:48:50 57.200199 60.116003 0 0 0 0 1 delete
06:48:46 57.200215 60.115863 0 0 0 0 1 delete
06:48:35 57.200201 60.115732 0 0 0 0 1 delete
06:48:27 57.200216 60.115623 0 0 0 0 1 delete
06:48:21 57.200210 60.115490 0 0 0 0 1 delete
06:48:17 57.200218 60.115341 0 0 0 0 1 delete
06:48:13 57.200238 60.115179 0 0 0 0 1 delete